NORTHAMPTON WEATHER

The latest weather and forecasts for Hardingstone

run by 1st Hardingstone Viking Scout Troop.


Thunder radar more information blitzortung!


Rain radar more information rain snow radar


Nearby METAR Reports

   
EGTC - Cranfield, United Kingdom
Distance from station: SE 24 km
Updated: Apr 12 2021 9:50 pm
NOT Current
Clear  
Clear  
   Wind: SW 4 kts
Wind: SW 4 kts
Temperature: 2°C
Wind Chill: 0°C
Dew Point: -6°C
Humidity: 56%
Barometer: 1031 mb
Visibility: More than 10 km
Cloud details: Clear
EGTC 122050Z 22004KT CAVOK 02/M06 Q1031
EGTK - Oxford, United Kingdom
Distance from station: SW 51 km
Updated: Apr 13 2021 7:20 am
Few Clouds  
Few Clouds  
   Wind: NNW 2 kts
Wind: NNW 2 kts
Temperature: 0°C
Dew Point: -2°C
Humidity: 87%
Barometer: 1033 mb
Clouds: Few Clouds
Visibility: More than 10 km
Cloud details: Few Clouds 3500 ft
EGTK 130620Z 33002KT 9999 FEW035 M00/M02 Q1033
EGGW - Luton Airport, United Kingdom
Distance from station: SE 52 km
Updated: Apr 13 2021 7:20 am
Clear  
Clear  
   Wind: SW 3 kts
Wind: SW 3 kts
Temperature: 2°C
Wind Chill: 1°C
Dew Point: -2°C
Humidity: 75%
Barometer: 1032 mb
Clouds: Clear
Visibility: More than 10 km
Cloud details: Clear
EGGW 130620Z AUTO 22003KT 9999 NCD 02/M02 Q1032
EGXT - Wittering Raf, United Kingdom
Distance from station: NNE 53 km
Updated: Apr 13 2021 6:50 am
Clear  
Clear  
   Wind: West 8 kts
Wind: West 8 kts
Temperature: -1°C
Wind Chill: -6°C
Dew Point: -4°C
Humidity: 80%
Barometer: 1031 mb
Visibility: More than 10 km
Cloud details: Clear
EGXT 130550Z 28008KT CAVOK M01/M04 Q1031 BLU
EGBB - Birmingham Airpo, United Kingdom
Distance from station: WNW 65 km
Updated: Apr 13 2021 7:20 am
Clear  
Clear  
   Wind: varies 1 kts
Wind: varies 1 kts
Temperature: 1°C
Dew Point: -3°C
Humidity: 75%
Barometer: 1032 mb
Visibility: More than 10 km
Cloud details: Clear
EGBB 130620Z VRB01KT CAVOK 01/M03 Q1032
EGUB - Benson Raf, United Kingdom
Distance from station: S 67 km
Updated: Apr 13 2021 6:50 am
Few Clouds  
Few Clouds  
   Wind: ENE 1 kts
Wind: ENE 1 kts
Temperature: -3°C
Dew Point: -5°C
Humidity: 86%
Barometer: 1032 mb
Clouds: Few Clouds
Visibility: More than 10 km
Cloud details: Few Clouds 3500 ft
EGUB 130550Z 06001KT 9999 FEW035 M03/M05 Q1032 RMK BLU
EGVN - Brize Norton Raf, United Kingdom
Distance from station: SW 69 km
Updated: Apr 13 2021 6:50 am
Few Clouds  
Few Clouds  
   Wind: WSW 2 kts
Wind: WSW 2 kts
Temperature: 0°C
Dew Point: -2°C
Humidity: 87%
Barometer: 1032 mb
Clouds: Few Clouds
Visibility: More than 10 km
Cloud details: Few Clouds 4900 ft
EGVN 130550Z 24002KT 9999 FEW049 M00/M02 Q1032 NOSIG RMK BLU BLU
EGSC - Cambridge, United Kingdom
Distance from station: E 72 km
Updated: Apr 12 2021 5:50 pm
NOT Current
Clear  
Clear  
   Wind: North 6 kts
Wind: North 6 kts
Temperature: 9°C
Wind Chill: 7°C
Dew Point: -7°C
Humidity: 32%
Barometer: 1029 mb
Visibility: More than 10 km
Cloud details: Clear
EGSC 121650Z 36006KT CAVOK 09/M07 Q1029
EGNX - East Midlands, United Kingdom
Distance from station: NNW 73 km
Updated: Apr 13 2021 7:20 am
Clear  
Clear  
   Wind: West 5 kts
Wind: West 5 kts
Temperature: 1°C
Wind Chill: -2°C
Dew Point: -4°C
Humidity: 70%
Barometer: 1032 mb
Visibility: More than 10 km
Cloud details: Clear
EGNX 130620Z 28005KT CAVOK 01/M04 Q1032
EGWU - Northolt Raf, United Kingdom
Distance from station: SSE 80 km
Updated: Apr 13 2021 7:20 am
Clear  
Clear  
   Wind: Calm
Wind: Calm
Temperature: -2°C
Dew Point: -3°C
Humidity: 93%
Barometer: 1033 mb
Visibility: More than 10 km
Cloud details: Clear
EGWU 130620Z 00000KT CAVOK M02/M03 Q1033 NOSIG RMK BLU BLU
  

Script developed by  Saratoga-weather.org Adapted for the template by  Weerstation Leuven

You find our weather info also at:

UK Metoffice

WeatherCloud

Weather Underground

United Kingdom Weather Network

AWEKAS

Citizen Weather Observer Program (CWOP)

HAMweather, WeatherForYou, PWS Weather

Equipment we use:

Weather-station
Davis VP2

Weather-program
Weather Display

Provider

Davis VP2

Weather Display